sensor_id;sensor_type;location;lat;lon;timestamp;P1;durP1;ratioP1;P2;durP2;ratioP2
34775;SDS011;20989;52.566;13.346;2023-04-01T00:00:20;0.63;;;0.63;;
34775;SDS011;20989;52.566;13.346;2023-04-01T00:03:21;0.60;;;0.60;;
34775;SDS011;20989;52.566;13.346;2023-04-01T00:06:23;0.80;;;0.80;;
34775;SDS011;20989;52.566;13.346;2023-04-01T00:09:23;0.63;;;0.63;;
34775;SDS011;20989;52.566;13.346;2023-04-01T00:12:25;0.70;;;0.70;;
34775;SDS011;20989;52.566;13.346;2023-04-01T00:15:26;0.68;;;0.68;;
34775;SDS011;20989;52.566;13.346;2023-04-01T00:18:26;0.60;;;0.60;;
34775;SDS011;20989;52.566;13.346;2023-04-01T00:21:27;0.60;;;0.60;;
34775;SDS011;20989;52.566;13.346;2023-04-01T00:24:28;0.57;;;0.57;;
34775;SDS011;20989;52.566;13.346;2023-04-01T00:27:28;1.65;;;0.77;;
34775;SDS011;20989;52.566;13.346;2023-04-01T00:30:29;0.60;;;0.60;;
34775;SDS011;20989;52.566;13.346;2023-04-01T00:33:30;1.08;;;0.77;;
34775;SDS011;20989;52.566;13.346;2023-04-01T00:36:30;0.50;;;0.50;;
34775;SDS011;20989;52.566;13.346;2023-04-01T00:39:31;0.70;;;0.70;;
34775;SDS011;20989;52.566;13.346;2023-04-01T00:42:33;0.80;;;0.80;;
34775;SDS011;20989;52.566;13.346;2023-04-01T00:45:35;0.55;;;0.55;;
34775;SDS011;20989;52.566;13.346;2023-04-01T00:48:45;0.70;;;0.70;;
34775;SDS011;20989;52.566;13.346;2023-04-01T00:51:50;0.50;;;0.50;;
34775;SDS011;20989;52.566;13.346;2023-04-01T00:54:55;0.70;;;0.70;;
34775;SDS011;20989;52.566;13.346;2023-04-01T00:58:03;0.50;;;0.50;;
34775;SDS011;20989;52.566;13.346;2023-04-01T01:01:08;0.40;;;0.40;;
34775;SDS011;20989;52.566;13.346;2023-04-01T01:04:29;0.68;;;0.68;;
34775;SDS011;20989;52.566;13.346;2023-04-01T01:10:48;0.50;;;0.50;;
34775;SDS011;20989;52.566;13.346;2023-04-01T01:13:56;0.65;;;0.65;;
34775;SDS011;20989;52.566;13.346;2023-04-01T01:17:11;0.65;;;0.65;;
34775;SDS011;20989;52.566;13.346;2023-04-01T01:27:14;0.50;;;0.50;;
34775;SDS011;20989;52.566;13.346;2023-04-01T01:30:23;0.65;;;0.60;;
34775;SDS011;20989;52.566;13.346;2023-04-01T01:37:12;0.60;;;0.60;;
34775;SDS011;20989;52.566;13.346;2023-04-01T01:40:15;0.80;;;0.50;;
34775;SDS011;20989;52.566;13.346;2023-04-01T01:43:18;0.40;;;0.40;;
34775;SDS011;20989;52.566;13.346;2023-04-01T01:46:22;0.65;;;0.65;;
34775;SDS011;20989;52.566;13.346;2023-04-01T01:49:26;0.50;;;0.50;;
34775;SDS011;20989;52.566;13.346;2023-04-01T01:52:30;0.57;;;0.57;;
34775;SDS011;20989;52.566;13.346;2023-04-01T01:55:34;0.60;;;0.60;;
34775;SDS011;20989;52.566;13.346;2023-04-01T01:58:44;0.80;;;0.75;;
34775;SDS011;20989;52.566;13.346;2023-04-01T02:01:49;0.93;;;0.60;;
34775;SDS011;20989;52.566;13.346;2023-04-01T02:04:53;0.70;;;0.70;;
34775;SDS011;20989;52.566;13.346;2023-04-01T02:08:00;0.40;;;0.40;;
34775;SDS011;20989;52.566;13.346;2023-04-01T02:11:07;0.68;;;0.60;;
34775;SDS011;20989;52.566;13.346;2023-04-01T02:17:14;0.60;;;0.60;;
34775;SDS011;20989;52.566;13.346;2023-04-01T02:20:24;0.50;;;0.50;;
34775;SDS011;20989;52.566;13.346;2023-04-01T02:23:25;0.47;;;0.47;;
34775;SDS011;20989;52.566;13.346;2023-04-01T02:26:28;0.45;;;0.45;;
34775;SDS011;20989;52.566;13.346;2023-04-01T02:29:29;0.50;;;0.50;;
34775;SDS011;20989;52.566;13.346;2023-04-01T02:32:30;0.50;;;0.50;;
34775;SDS011;20989;52.566;13.346;2023-04-01T02:35:33;0.47;;;0.47;;
34775;SDS011;20989;52.566;13.346;2023-04-01T02:38:36;0.50;;;0.50;;
34775;SDS011;20989;52.566;13.346;2023-04-01T02:41:41;0.60;;;0.60;;
34775;SDS011;20989;52.566;13.346;2023-04-01T02:44:43;0.50;;;0.50;;
34775;SDS011;20989;52.566;13.346;2023-04-01T02:47:43;0.60;;;0.60;;
34775;SDS011;20989;52.566;13.346;2023-04-01T02:50:44;0.40;;;0.40;;
34775;SDS011;20989;52.566;13.346;2023-04-01T02:53:45;0.40;;;0.40;;
34775;SDS011;20989;52.566;13.346;2023-04-01T02:56:46;0.73;;;0.60;;
34775;SDS011;20989;52.566;13.346;2023-04-01T02:59:47;0.52;;;0.52;;
34775;SDS011;20989;52.566;13.346;2023-04-01T03:02:48;0.40;;;0.40;;
34775;SDS011;20989;52.566;13.346;2023-04-01T03:05:49;0.40;;;0.40;;
34775;SDS011;20989;52.566;13.346;2023-04-01T03:08:50;0.32;;;0.32;;
34775;SDS011;20989;52.566;13.346;2023-04-01T03:11:50;0.40;;;0.40;;
34775;SDS011;20989;52.566;13.346;2023-04-01T03:14:51;0.45;;;0.45;;
34775;SDS011;20989;52.566;13.346;2023-04-01T03:17:52;0.40;;;0.40;;
34775;SDS011;20989;52.566;13.346;2023-04-01T03:20:52;0.50;;;0.50;;
34775;SDS011;20989;52.566;13.346;2023-04-01T03:23:53;0.40;;;0.40;;
34775;SDS011;20989;52.566;13.346;2023-04-01T03:26:53;0.40;;;0.40;;
34775;SDS011;20989;52.566;13.346;2023-04-01T03:29:54;0.40;;;0.40;;
34775;SDS011;20989;52.566;13.346;2023-04-01T03:32:55;0.32;;;0.32;;
34775;SDS011;20989;52.566;13.346;2023-04-01T03:35:56;0.50;;;0.50;;
34775;SDS011;20989;52.566;13.346;2023-04-01T03:38:56;0.43;;;0.43;;
34775;SDS011;20989;52.566;13.346;2023-04-01T03:41:57;0.30;;;0.30;;
34775;SDS011;20989;52.566;13.346;2023-04-01T03:44:58;0.40;;;0.40;;
34775;SDS011;20989;52.566;13.346;2023-04-01T03:47:59;0.50;;;0.50;;
34775;SDS011;20989;52.566;13.346;2023-04-01T03:51:00;0.82;;;0.45;;
34775;SDS011;20989;52.566;13.346;2023-04-01T03:54:00;0.50;;;0.50;;
34775;SDS011;20989;52.566;13.346;2023-04-01T03:57:01;0.40;;;0.40;;
34775;SDS011;20989;52.566;13.346;2023-04-01T04:00:02;0.30;;;0.30;;
34775;SDS011;20989;52.566;13.346;2023-04-01T04:03:03;0.40;;;0.40;;
34775;SDS011;20989;52.566;13.346;2023-04-01T04:06:03;0.45;;;0.45;;
34775;SDS011;20989;52.566;13.346;2023-04-01T04:09:04;0.40;;;0.40;;
34775;SDS011;20989;52.566;13.346;2023-04-01T04:12:05;0.63;;;0.43;;
34775;SDS011;20989;52.566;13.346;2023-04-01T04:15:07;0.50;;;0.50;;
34775;SDS011;20989;52.566;13.346;2023-04-01T04:18:08;0.30;;;0.30;;
34775;SDS011;20989;52.566;13.346;2023-04-01T04:21:12;0.60;;;0.60;;
34775;SDS011;20989;52.566;13.346;2023-04-01T04:24:14;0.40;;;0.40;;
34775;SDS011;20989;52.566;13.346;2023-04-01T04:27:15;0.50;;;0.50;;
34775;SDS011;20989;52.566;13.346;2023-04-01T04:30:15;0.52;;;0.52;;
34775;SDS011;20989;52.566;13.346;2023-04-01T04:33:16;0.50;;;0.50;;
34775;SDS011;20989;52.566;13.346;2023-04-01T04:36:17;0.50;;;0.50;;
34775;SDS011;20989;52.566;13.346;2023-04-01T04:39:19;0.40;;;0.40;;
34775;SDS011;20989;52.566;13.346;2023-04-01T04:42:20;0.50;;;0.50;;
34775;SDS011;20989;52.566;13.346;2023-04-01T04:45:20;0.55;;;0.55;;
34775;SDS011;20989;52.566;13.346;2023-04-01T04:48:21;0.30;;;0.30;;
34775;SDS011;20989;52.566;13.346;2023-04-01T04:51:22;0.43;;;0.43;;
34775;SDS011;20989;52.566;13.346;2023-04-01T04:54:23;0.45;;;0.45;;
34775;SDS011;20989;52.566;13.346;2023-04-01T04:57:24;0.40;;;0.40;;
34775;SDS011;20989;52.566;13.346;2023-04-01T05:00:36;0.30;;;0.30;;
34775;SDS011;20989;52.566;13.346;2023-04-01T05:03:37;0.40;;;0.40;;
34775;SDS011;20989;52.566;13.346;2023-04-01T05:06:38;0.50;;;0.50;;
34775;SDS011;20989;52.566;13.346;2023-04-01T05:09:39;1.13;;;0.43;;
34775;SDS011;20989;52.566;13.346;2023-04-01T05:12:40;0.50;;;0.50;;
34775;SDS011;20989;52.566;13.346;2023-04-01T05:15:40;0.50;;;0.50;;
34775;SDS011;20989;52.566;13.346;2023-04-01T05:18:41;0.50;;;0.50;;
34775;SDS011;20989;52.566;13.346;2023-04-01T05:21:42;0.40;;;0.40;;
34775;SDS011;20989;52.566;13.346;2023-04-01T05:24:43;0.30;;;0.30;;
34775;SDS011;20989;52.566;13.346;2023-04-01T05:27:43;0.32;;;0.32;;
34775;SDS011;20989;52.566;13.346;2023-04-01T05:30:44;0.50;;;0.45;;
34775;SDS011;20989;52.566;13.346;2023-04-01T05:33:45;1.13;;;0.50;;
34775;SDS011;20989;52.566;13.346;2023-04-01T05:36:46;0.40;;;0.40;;
34775;SDS011;20989;52.566;13.346;2023-04-01T05:39:46;0.35;;;0.35;;
34775;SDS011;20989;52.566;13.346;2023-04-01T05:42:47;0.50;;;0.50;;
34775;SDS011;20989;52.566;13.346;2023-04-01T05:45:48;0.45;;;0.43;;
34775;SDS011;20989;52.566;13.346;2023-04-01T05:48:49;0.60;;;0.60;;
34775;SDS011;20989;52.566;13.346;2023-04-01T05:51:49;0.43;;;0.43;;
34775;SDS011;20989;52.566;13.346;2023-04-01T05:54:51;0.50;;;0.50;;
34775;SDS011;20989;52.566;13.346;2023-04-01T05:57:51;0.40;;;0.40;;
34775;SDS011;20989;52.566;13.346;2023-04-01T06:00:59;0.52;;;0.30;;
34775;SDS011;20989;52.566;13.346;2023-04-01T06:04:01;0.73;;;0.73;;
34775;SDS011;20989;52.566;13.346;2023-04-01T06:07:05;0.47;;;0.47;;
34775;SDS011;20989;52.566;13.346;2023-04-01T06:10:14;0.40;;;0.40;;
34775;SDS011;20989;52.566;13.346;2023-04-01T06:17:04;0.47;;;0.47;;
34775;SDS011;20989;52.566;13.346;2023-04-01T06:23:44;0.65;;;0.50;;
34775;SDS011;20989;52.566;13.346;2023-04-01T06:34:32;0.52;;;0.52;;
34775;SDS011;20989;52.566;13.346;2023-04-01T06:37:54;0.32;;;0.30;;
34775;SDS011;20989;52.566;13.346;2023-04-01T06:47:37;0.38;;;0.38;;
34775;SDS011;20989;52.566;13.346;2023-04-01T06:54:16;0.40;;;0.40;;
34775;SDS011;20989;52.566;13.346;2023-04-01T06:57:31;0.50;;;0.50;;
34775;SDS011;20989;52.566;13.346;2023-04-01T07:01:00;0.40;;;0.40;;
34775;SDS011;20989;52.566;13.346;2023-04-01T07:14:02;0.50;;;0.50;;
34775;SDS011;20989;52.566;13.346;2023-04-01T07:17:14;0.35;;;0.35;;
34775;SDS011;20989;52.566;13.346;2023-04-01T07:20:22;0.40;;;0.40;;
34775;SDS011;20989;52.566;13.346;2023-04-01T07:23:36;0.50;;;0.50;;
34775;SDS011;20989;52.566;13.346;2023-04-01T07:26:42;0.40;;;0.40;;
34775;SDS011;20989;52.566;13.346;2023-04-01T07:29:43;0.40;;;0.40;;
34775;SDS011;20989;52.566;13.346;2023-04-01T07:32:47;2.45;;;0.50;;
34775;SDS011;20989;52.566;13.346;2023-04-01T07:35:57;0.60;;;0.60;;
34775;SDS011;20989;52.566;13.346;2023-04-01T07:39:28;0.73;;;0.50;;
34775;SDS011;20989;52.566;13.346;2023-04-01T07:43:08;0.40;;;0.40;;
34775;SDS011;20989;52.566;13.346;2023-04-01T07:49:38;0.40;;;0.40;;
34775;SDS011;20989;52.566;13.346;2023-04-01T07:56:16;0.40;;;0.40;;
34775;SDS011;20989;52.566;13.346;2023-04-01T08:05:55;0.50;;;0.50;;
34775;SDS011;20989;52.566;13.346;2023-04-01T08:09:09;0.45;;;0.45;;
34775;SDS011;20989;52.566;13.346;2023-04-01T08:22:19;0.50;;;0.50;;
34775;SDS011;20989;52.566;13.346;2023-04-01T08:25:39;0.57;;;0.57;;
34775;SDS011;20989;52.566;13.346;2023-04-01T08:29:00;0.50;;;0.50;;
34775;SDS011;20989;52.566;13.346;2023-04-01T08:32:08;0.50;;;0.50;;
34775;SDS011;20989;52.566;13.346;2023-04-01T08:39:49;0.70;;;0.70;;
34775;SDS011;20989;52.566;13.346;2023-04-01T08:42:59;0.40;;;0.40;;
34775;SDS011;20989;52.566;13.346;2023-04-01T08:56:48;0.38;;;0.38;;
34775;SDS011;20989;52.566;13.346;2023-04-01T09:16:53;0.50;;;0.50;;
34775;SDS011;20989;52.566;13.346;2023-04-01T09:23:14;0.57;;;0.57;;
34775;SDS011;20989;52.566;13.346;2023-04-01T09:30:05;0.60;;;0.60;;
34775;SDS011;20989;52.566;13.346;2023-04-01T09:40:03;0.50;;;0.50;;
34775;SDS011;20989;52.566;13.346;2023-04-01T09:43:39;0.70;;;0.70;;
34775;SDS011;20989;52.566;13.346;2023-04-01T09:47:41;0.93;;;0.52;;
34775;SDS011;20989;52.566;13.346;2023-04-01T09:50:52;0.73;;;0.73;;
34775;SDS011;20989;52.566;13.346;2023-04-01T10:01:36;0.70;;;0.70;;
34775;SDS011;20989;52.566;13.346;2023-04-01T10:11:20;1.90;;;1.55;;
34775;SDS011;20989;52.566;13.346;2023-04-01T10:14:55;5.75;;;1.48;;
34775;SDS011;20989;52.566;13.346;2023-04-01T10:34:48;415.13;;;167.23;;
34775;SDS011;20989;52.566;13.346;2023-04-01T10:38:18;396.83;;;164.95;;
34775;SDS011;20989;52.566;13.346;2023-04-01T10:54:23;369.50;;;151.32;;
34775;SDS011;20989;52.566;13.346;2023-04-01T11:04:39;329.45;;;140.35;;
34775;SDS011;20989;52.566;13.346;2023-04-01T11:18:44;308.25;;;130.30;;
34775;SDS011;20989;52.566;13.346;2023-04-01T11:25:06;278.10;;;121.22;;
34775;SDS011;20989;52.566;13.346;2023-04-01T11:28:19;263.58;;;116.40;;
34775;SDS011;20989;52.566;13.346;2023-04-01T11:41:41;226.95;;;103.22;;
34775;SDS011;20989;52.566;13.346;2023-04-01T12:49:33;107.25;;;49.22;;
34775;SDS011;20989;52.566;13.346;2023-04-01T12:52:58;105.32;;;47.58;;
34775;SDS011;20989;52.566;13.346;2023-04-01T12:56:24;98.63;;;47.75;;
34775;SDS011;20989;52.566;13.346;2023-04-01T13:19:17;80.65;;;39.00;;
34775;SDS011;20989;52.566;13.346;2023-04-01T13:29:07;74.60;;;36.05;;
34775;SDS011;20989;52.566;13.346;2023-04-01T13:35:42;68.13;;;33.83;;
34775;SDS011;20989;52.566;13.346;2023-04-01T13:42:21;62.03;;;30.83;;
34775;SDS011;20989;52.566;13.346;2023-04-01T13:46:04;62.50;;;31.23;;
34775;SDS011;20989;52.566;13.346;2023-04-01T13:52:19;70.38;;;31.58;;
34775;SDS011;20989;52.566;13.346;2023-04-01T13:55:38;61.90;;;28.58;;
34775;SDS011;20989;52.566;13.346;2023-04-01T14:19:11;77.40;;;34.08;;
34775;SDS011;20989;52.566;13.346;2023-04-01T14:29:29;66.50;;;31.38;;
34775;SDS011;20989;52.566;13.346;2023-04-01T14:32:45;66.25;;;28.15;;
34775;SDS011;20989;52.566;13.346;2023-04-01T14:40:06;49.90;;;25.75;;
34775;SDS011;20989;52.566;13.346;2023-04-01T14:47:19;53.53;;;24.70;;
34775;SDS011;20989;52.566;13.346;2023-04-01T14:50:43;59.65;;;24.67;;
34775;SDS011;20989;52.566;13.346;2023-04-01T15:00:23;39.55;;;20.83;;
34775;SDS011;20989;52.566;13.346;2023-04-01T15:03:26;39.65;;;20.92;;
34775;SDS011;20989;52.566;13.346;2023-04-01T15:20:10;36.10;;;18.08;;
34775;SDS011;20989;52.566;13.346;2023-04-01T15:27:15;35.28;;;17.52;;
34775;SDS011;20989;52.566;13.346;2023-04-01T15:30:34;30.05;;;16.48;;
34775;SDS011;20989;52.566;13.346;2023-04-01T15:34:17;33.67;;;16.05;;
34775;SDS011;20989;52.566;13.346;2023-04-01T15:37:54;30.10;;;15.60;;
34775;SDS011;20989;52.566;13.346;2023-04-01T15:44:48;28.48;;;14.40;;
34775;SDS011;20989;52.566;13.346;2023-04-01T15:54:51;25.45;;;13.70;;
34775;SDS011;20989;52.566;13.346;2023-04-01T16:04:46;20.23;;;11.27;;
34775;SDS011;20989;52.566;13.346;2023-04-01T16:15:03;20.83;;;11.38;;
34775;SDS011;20989;52.566;13.346;2023-04-01T16:21:54;21.30;;;10.63;;
34775;SDS011;20989;52.566;13.346;2023-04-01T16:25:19;21.35;;;10.73;;
34775;SDS011;20989;52.566;13.346;2023-04-01T16:35:46;17.88;;;9.20;;
34775;SDS011;20989;52.566;13.346;2023-04-01T16:42:52;14.95;;;8.77;;
34775;SDS011;20989;52.566;13.346;2023-04-01T16:49:31;15.15;;;8.75;;
34775;SDS011;20989;52.566;13.346;2023-04-01T16:59:36;11.98;;;6.93;;
34775;SDS011;20989;52.566;13.346;2023-04-01T17:02:49;11.85;;;6.53;;
34775;SDS011;20989;52.566;13.346;2023-04-01T17:16:28;8.50;;;5.93;;
34775;SDS011;20989;52.566;13.346;2023-04-01T17:33:53;8.73;;;5.57;;
34775;SDS011;20989;52.566;13.346;2023-04-01T17:41:03;12.45;;;5.78;;
34775;SDS011;20989;52.566;13.346;2023-04-01T17:47:29;9.05;;;4.85;;
34775;SDS011;20989;52.566;13.346;2023-04-01T18:08:11;9.15;;;4.60;;
34775;SDS011;20989;52.566;13.346;2023-04-01T18:17:50;8.95;;;3.90;;
34775;SDS011;20989;52.566;13.346;2023-04-01T18:24:30;5.68;;;3.58;;
34775;SDS011;20989;52.566;13.346;2023-04-01T18:27:40;4.70;;;3.35;;
34775;SDS011;20989;52.566;13.346;2023-04-01T18:30:51;7.22;;;3.95;;
34775;SDS011;20989;52.566;13.346;2023-04-01T18:34:06;4.68;;;3.75;;
34775;SDS011;20989;52.566;13.346;2023-04-01T18:47:47;4.45;;;2.92;;
34775;SDS011;20989;52.566;13.346;2023-04-01T18:54:21;5.82;;;3.03;;
34775;SDS011;20989;52.566;13.346;2023-04-01T18:58:06;3.92;;;3.42;;
34775;SDS011;20989;52.566;13.346;2023-04-01T19:01:23;3.17;;;2.88;;
34775;SDS011;20989;52.566;13.346;2023-04-01T19:04:47;4.07;;;3.17;;
34775;SDS011;20989;52.566;13.346;2023-04-01T19:07:56;5.80;;;3.55;;
34775;SDS011;20989;52.566;13.346;2023-04-01T19:21:41;4.75;;;3.40;;
34775;SDS011;20989;52.566;13.346;2023-04-01T19:38:40;4.43;;;3.10;;
34775;SDS011;20989;52.566;13.346;2023-04-01T19:45:11;5.22;;;3.03;;
34775;SDS011;20989;52.566;13.346;2023-04-01T19:48:31;3.30;;;2.67;;
34775;SDS011;20989;52.566;13.346;2023-04-01T19:51:44;3.55;;;2.83;;
34775;SDS011;20989;52.566;13.346;2023-04-01T20:02:39;4.60;;;2.55;;
34775;SDS011;20989;52.566;13.346;2023-04-01T20:12:09;3.55;;;2.90;;
34775;SDS011;20989;52.566;13.346;2023-04-01T20:15:32;2.70;;;2.45;;
34775;SDS011;20989;52.566;13.346;2023-04-01T20:18:45;2.67;;;2.47;;
34775;SDS011;20989;52.566;13.346;2023-04-01T20:21:51;3.38;;;2.83;;
34775;SDS011;20989;52.566;13.346;2023-04-01T20:25:12;2.42;;;2.22;;
34775;SDS011;20989;52.566;13.346;2023-04-01T20:34:31;2.40;;;2.20;;
34775;SDS011;20989;52.566;13.346;2023-04-01T20:37:42;3.17;;;2.63;;
34775;SDS011;20989;52.566;13.346;2023-04-01T20:41:20;2.67;;;2.30;;
34775;SDS011;20989;52.566;13.346;2023-04-01T20:51:35;2.67;;;2.47;;
34775;SDS011;20989;52.566;13.346;2023-04-01T20:54:45;2.92;;;2.72;;
34775;SDS011;20989;52.566;13.346;2023-04-01T21:01:09;2.28;;;2.00;;
34775;SDS011;20989;52.566;13.346;2023-04-01T21:04:27;2.42;;;2.25;;
34775;SDS011;20989;52.566;13.346;2023-04-01T21:07:41;2.40;;;2.20;;
34775;SDS011;20989;52.566;13.346;2023-04-01T21:18:00;2.60;;;2.40;;
34775;SDS011;20989;52.566;13.346;2023-04-01T21:28:34;2.45;;;2.08;;
34775;SDS011;20989;52.566;13.346;2023-04-01T21:31:59;3.00;;;2.00;;
34775;SDS011;20989;52.566;13.346;2023-04-01T21:45:13;3.47;;;2.25;;
34775;SDS011;20989;52.566;13.346;2023-04-01T21:51:45;1.85;;;1.75;;
34775;SDS011;20989;52.566;13.346;2023-04-01T22:02:36;2.30;;;2.10;;
34775;SDS011;20989;52.566;13.346;2023-04-01T22:06:03;2.03;;;1.90;;
34775;SDS011;20989;52.566;13.346;2023-04-01T22:12:10;2.33;;;2.13;;
34775;SDS011;20989;52.566;13.346;2023-04-01T22:28:16;2.33;;;2.13;;
34775;SDS011;20989;52.566;13.346;2023-04-01T22:31:28;1.63;;;1.52;;
34775;SDS011;20989;52.566;13.346;2023-04-01T22:44:55;2.35;;;2.15;;
34775;SDS011;20989;52.566;13.346;2023-04-01T22:54:54;1.90;;;1.80;;
34775;SDS011;20989;52.566;13.346;2023-04-01T22:58:00;2.03;;;1.83;;
34775;SDS011;20989;52.566;13.346;2023-04-01T23:01:10;3.00;;;1.85;;
34775;SDS011;20989;52.566;13.346;2023-04-01T23:04:17;1.50;;;1.40;;
34775;SDS011;20989;52.566;13.346;2023-04-01T23:10:52;1.63;;;1.52;;
34775;SDS011;20989;52.566;13.346;2023-04-01T23:14:04;1.80;;;1.70;;
34775;SDS011;20989;52.566;13.346;2023-04-01T23:21:03;1.85;;;1.60;;
34775;SDS011;20989;52.566;13.346;2023-04-01T23:24:25;2.13;;;1.92;;
34775;SDS011;20989;52.566;13.346;2023-04-01T23:27:51;1.73;;;1.63;;
34775;SDS011;20989;52.566;13.346;2023-04-01T23:31:32;1.70;;;1.60;;
34775;SDS011;20989;52.566;13.346;2023-04-01T23:34:49;1.65;;;1.55;;
34775;SDS011;20989;52.566;13.346;2023-04-01T23:37:55;1.58;;;1.48;;
34775;SDS011;20989;52.566;13.346;2023-04-01T23:40:55;1.85;;;1.60;;
34775;SDS011;20989;52.566;13.346;2023-04-01T23:44:08;1.80;;;1.70;;
34775;SDS011;20989;52.566;13.346;2023-04-01T23:47:24;1.58;;;1.48;;
34775;SDS011;20989;52.566;13.346;2023-04-01T23:50:26;1.50;;;1.40;;
34775;SDS011;20989;52.566;13.346;2023-04-01T23:53:29;1.73;;;1.63;;
34775;SDS011;20989;52.566;13.346;2023-04-01T23:56:44;1.70;;;1.60;;
